sensor_id;sensor_type;location;lat;lon;timestamp;P1;durP1;ratioP1;P2;durP2;ratioP2
67798;SDS011;54596;43.216;27.904;2022-09-28T00:01:37;10.18;;;4.38;;
67798;SDS011;54596;43.216;27.904;2022-09-28T00:04:02;8.82;;;4.40;;
67798;SDS011;54596;43.216;27.904;2022-09-28T00:06:29;10.45;;;5.00;;
67798;SDS011;54596;43.216;27.904;2022-09-28T00:08:55;9.95;;;4.90;;
67798;SDS011;54596;43.216;27.904;2022-09-28T00:11:22;8.48;;;4.57;;
67798;SDS011;54596;43.216;27.904;2022-09-28T00:13:51;9.73;;;4.50;;
67798;SDS011;54596;43.216;27.904;2022-09-28T00:16:21;11.68;;;4.00;;
67798;SDS011;54596;43.216;27.904;2022-09-28T00:18:51;8.82;;;3.70;;
67798;SDS011;54596;43.216;27.904;2022-09-28T00:21:19;10.52;;;4.30;;
67798;SDS011;54596;43.216;27.904;2022-09-28T00:23:46;8.82;;;3.88;;
67798;SDS011;54596;43.216;27.904;2022-09-28T00:26:31;9.77;;;4.68;;
67798;SDS011;54596;43.216;27.904;2022-09-28T00:28:58;9.82;;;6.18;;
67798;SDS011;54596;43.216;27.904;2022-09-28T00:31:25;9.80;;;4.55;;
67798;SDS011;54596;43.216;27.904;2022-09-28T00:33:54;9.00;;;4.65;;
67798;SDS011;54596;43.216;27.904;2022-09-28T00:36:24;11.95;;;5.22;;
67798;SDS011;54596;43.216;27.904;2022-09-28T00:38:54;11.13;;;6.18;;
67798;SDS011;54596;43.216;27.904;2022-09-28T00:41:20;11.10;;;6.70;;
67798;SDS011;54596;43.216;27.904;2022-09-28T00:43:51;12.35;;;6.50;;
67798;SDS011;54596;43.216;27.904;2022-09-28T00:46:50;11.23;;;6.60;;
67798;SDS011;54596;43.216;27.904;2022-09-28T00:49:09;14.25;;;7.20;;
67798;SDS011;54596;43.216;27.904;2022-09-28T00:51:39;13.35;;;7.07;;
67798;SDS011;54596;43.216;27.904;2022-09-28T00:54:07;12.60;;;7.10;;
67798;SDS011;54596;43.216;27.904;2022-09-28T00:56:33;14.02;;;7.80;;
67798;SDS011;54596;43.216;27.904;2022-09-28T00:59:02;11.32;;;7.85;;
67798;SDS011;54596;43.216;27.904;2022-09-28T01:01:28;13.85;;;8.20;;
67798;SDS011;54596;43.216;27.904;2022-09-28T01:03:54;12.73;;;8.07;;
67798;SDS011;54596;43.216;27.904;2022-09-28T01:06:23;12.82;;;7.72;;
67798;SDS011;54596;43.216;27.904;2022-09-28T01:08:54;11.43;;;7.43;;
67798;SDS011;54596;43.216;27.904;2022-09-28T01:11:22;13.05;;;7.45;;
67798;SDS011;54596;43.216;27.904;2022-09-28T01:13:49;12.65;;;7.60;;
67798;SDS011;54596;43.216;27.904;2022-09-28T01:19:03;11.25;;;7.45;;
67798;SDS011;54596;43.216;27.904;2022-09-28T01:25:03;13.82;;;8.70;;
67798;SDS011;54596;43.216;27.904;2022-09-28T01:37:32;17.15;;;9.90;;
67798;SDS011;54596;43.216;27.904;2022-09-28T01:40:04;17.27;;;10.52;;
67798;SDS011;54596;43.216;27.904;2022-09-28T01:42:32;14.52;;;10.60;;
67798;SDS011;54596;43.216;27.904;2022-09-28T01:45:03;15.55;;;10.25;;
67798;SDS011;54596;43.216;27.904;2022-09-28T01:47:32;16.75;;;11.50;;
67798;SDS011;54596;43.216;27.904;2022-09-28T01:50:09;19.02;;;10.55;;
67798;SDS011;54596;43.216;27.904;2022-09-28T01:53:00;18.08;;;10.32;;
67798;SDS011;54596;43.216;27.904;2022-09-28T01:55:45;14.35;;;10.38;;
67798;SDS011;54596;43.216;27.904;2022-09-28T01:58:15;16.50;;;9.63;;
67798;SDS011;54596;43.216;27.904;2022-09-28T02:00:42;18.55;;;10.43;;
67798;SDS011;54596;43.216;27.904;2022-09-28T02:03:17;15.07;;;9.73;;
67798;SDS011;54596;43.216;27.904;2022-09-28T02:06:11;15.82;;;9.70;;
67798;SDS011;54596;43.216;27.904;2022-09-28T02:08:42;15.45;;;9.63;;
67798;SDS011;54596;43.216;27.904;2022-09-28T02:11:18;13.13;;;8.98;;
67798;SDS011;54596;43.216;27.904;2022-09-28T02:13:57;16.40;;;9.52;;
67798;SDS011;54596;43.216;27.904;2022-09-28T02:16:34;13.63;;;8.93;;
67798;SDS011;54596;43.216;27.904;2022-09-28T02:19:07;13.88;;;9.43;;
67798;SDS011;54596;43.216;27.904;2022-09-28T02:21:43;14.40;;;9.32;;
67798;SDS011;54596;43.216;27.904;2022-09-28T02:26:54;12.38;;;7.28;;
67798;SDS011;54596;43.216;27.904;2022-09-28T02:29:24;12.10;;;6.05;;
67798;SDS011;54596;43.216;27.904;2022-09-28T02:31:50;13.52;;;6.68;;
67798;SDS011;54596;43.216;27.904;2022-09-28T02:34:16;10.45;;;6.18;;
67798;SDS011;54596;43.216;27.904;2022-09-28T02:36:42;12.55;;;6.53;;
67798;SDS011;54596;43.216;27.904;2022-09-28T02:39:12;10.63;;;5.85;;
67798;SDS011;54596;43.216;27.904;2022-09-28T02:44:33;14.50;;;8.55;;
67798;SDS011;54596;43.216;27.904;2022-09-28T03:00:36;18.88;;;12.23;;
67798;SDS011;54596;43.216;27.904;2022-09-28T03:05:44;17.17;;;11.57;;
67798;SDS011;54596;43.216;27.904;2022-09-28T03:11:18;18.48;;;11.82;;
67798;SDS011;54596;43.216;27.904;2022-09-28T03:13:49;19.88;;;12.55;;
67798;SDS011;54596;43.216;27.904;2022-09-28T03:16:17;16.67;;;12.52;;
67798;SDS011;54596;43.216;27.904;2022-09-28T03:18:43;20.33;;;12.55;;
67798;SDS011;54596;43.216;27.904;2022-09-28T03:21:12;15.65;;;12.45;;
67798;SDS011;54596;43.216;27.904;2022-09-28T03:23:39;15.90;;;12.50;;
67798;SDS011;54596;43.216;27.904;2022-09-28T03:26:06;22.02;;;12.13;;
67798;SDS011;54596;43.216;27.904;2022-09-28T03:28:33;18.13;;;12.25;;
67798;SDS011;54596;43.216;27.904;2022-09-28T03:31:00;17.70;;;11.40;;
67798;SDS011;54596;43.216;27.904;2022-09-28T03:33:25;17.20;;;10.93;;
67798;SDS011;54596;43.216;27.904;2022-09-28T03:35:51;14.88;;;11.15;;
67798;SDS011;54596;43.216;27.904;2022-09-28T03:38:17;19.38;;;11.38;;
67798;SDS011;54596;43.216;27.904;2022-09-28T03:40:44;19.80;;;13.68;;
67798;SDS011;54596;43.216;27.904;2022-09-28T03:43:25;18.10;;;14.43;;
67798;SDS011;54596;43.216;27.904;2022-09-28T03:45:55;20.73;;;14.35;;
67798;SDS011;54596;43.216;27.904;2022-09-28T03:48:26;21.30;;;15.55;;
67798;SDS011;54596;43.216;27.904;2022-09-28T03:50:56;19.23;;;13.95;;
67798;SDS011;54596;43.216;27.904;2022-09-28T03:53:24;20.02;;;12.18;;
67798;SDS011;54596;43.216;27.904;2022-09-28T03:55:50;17.45;;;11.60;;
67798;SDS011;54596;43.216;27.904;2022-09-28T03:58:18;17.02;;;11.80;;
67798;SDS011;54596;43.216;27.904;2022-09-28T04:00:44;19.52;;;12.15;;
67798;SDS011;54596;43.216;27.904;2022-09-28T04:03:10;28.70;;;22.23;;
67798;SDS011;54596;43.216;27.904;2022-09-28T04:05:35;26.75;;;20.20;;
67798;SDS011;54596;43.216;27.904;2022-09-28T04:08:01;21.63;;;15.82;;
67798;SDS011;54596;43.216;27.904;2022-09-28T04:10:26;24.40;;;17.02;;
67798;SDS011;54596;43.216;27.904;2022-09-28T04:12:56;24.08;;;17.88;;
67798;SDS011;54596;43.216;27.904;2022-09-28T04:15:22;27.30;;;19.58;;
67798;SDS011;54596;43.216;27.904;2022-09-28T04:17:48;26.65;;;20.67;;
67798;SDS011;54596;43.216;27.904;2022-09-28T04:20:13;27.23;;;19.08;;
67798;SDS011;54596;43.216;27.904;2022-09-28T04:22:39;26.48;;;19.15;;
67798;SDS011;54596;43.216;27.904;2022-09-28T04:25:04;29.63;;;22.10;;
67798;SDS011;54596;43.216;27.904;2022-09-28T04:27:30;28.35;;;20.35;;
67798;SDS011;54596;43.216;27.904;2022-09-28T04:30:15;28.02;;;19.40;;
67798;SDS011;54596;43.216;27.904;2022-09-28T04:32:41;23.60;;;16.88;;
67798;SDS011;54596;43.216;27.904;2022-09-28T04:35:06;30.45;;;22.85;;
67798;SDS011;54596;43.216;27.904;2022-09-28T04:37:33;25.50;;;18.15;;
67798;SDS011;54596;43.216;27.904;2022-09-28T04:39:59;38.17;;;32.45;;
67798;SDS011;54596;43.216;27.904;2022-09-28T04:42:24;60.78;;;54.80;;
67798;SDS011;54596;43.216;27.904;2022-09-28T04:44:50;78.57;;;70.90;;
67798;SDS011;54596;43.216;27.904;2022-09-28T04:47:15;85.50;;;77.63;;
67798;SDS011;54596;43.216;27.904;2022-09-28T04:49:40;78.03;;;70.50;;
67798;SDS011;54596;43.216;27.904;2022-09-28T04:52:06;70.15;;;63.20;;
67798;SDS011;54596;43.216;27.904;2022-09-28T04:54:32;61.63;;;55.25;;
67798;SDS011;54596;43.216;27.904;2022-09-28T04:56:58;42.25;;;36.47;;
67798;SDS011;54596;43.216;27.904;2022-09-28T04:59:23;36.60;;;28.92;;
67798;SDS011;54596;43.216;27.904;2022-09-28T05:01:49;31.88;;;24.73;;
67798;SDS011;54596;43.216;27.904;2022-09-28T05:04:15;29.05;;;19.25;;
67798;SDS011;54596;43.216;27.904;2022-09-28T05:06:41;30.48;;;18.38;;
67798;SDS011;54596;43.216;27.904;2022-09-28T05:09:06;28.35;;;18.20;;
67798;SDS011;54596;43.216;27.904;2022-09-28T05:11:33;20.92;;;14.95;;
67798;SDS011;54596;43.216;27.904;2022-09-28T05:13:59;33.40;;;17.73;;
67798;SDS011;54596;43.216;27.904;2022-09-28T05:16:25;29.15;;;17.40;;
67798;SDS011;54596;43.216;27.904;2022-09-28T05:18:55;30.23;;;16.90;;
67798;SDS011;54596;43.216;27.904;2022-09-28T05:21:21;24.35;;;16.60;;
67798;SDS011;54596;43.216;27.904;2022-09-28T05:23:49;26.42;;;15.25;;
67798;SDS011;54596;43.216;27.904;2022-09-28T05:26:15;29.88;;;15.43;;
67798;SDS011;54596;43.216;27.904;2022-09-28T05:28:40;26.95;;;15.25;;
67798;SDS011;54596;43.216;27.904;2022-09-28T05:31:06;25.40;;;15.10;;
67798;SDS011;54596;43.216;27.904;2022-09-28T05:33:31;23.75;;;13.93;;
67798;SDS011;54596;43.216;27.904;2022-09-28T05:35:57;29.70;;;15.38;;
67798;SDS011;54596;43.216;27.904;2022-09-28T05:38:23;20.85;;;13.50;;
67798;SDS011;54596;43.216;27.904;2022-09-28T05:40:49;23.60;;;11.93;;
67798;SDS011;54596;43.216;27.904;2022-09-28T05:43:15;21.80;;;11.02;;
67798;SDS011;54596;43.216;27.904;2022-09-28T05:45:40;23.67;;;10.85;;
67798;SDS011;54596;43.216;27.904;2022-09-28T05:48:06;28.90;;;13.02;;
67798;SDS011;54596;43.216;27.904;2022-09-28T05:50:32;26.75;;;13.07;;
67798;SDS011;54596;43.216;27.904;2022-09-28T05:53:01;22.10;;;11.07;;
67798;SDS011;54596;43.216;27.904;2022-09-28T05:55:32;21.70;;;10.25;;
67798;SDS011;54596;43.216;27.904;2022-09-28T05:57:59;23.60;;;10.15;;
67798;SDS011;54596;43.216;27.904;2022-09-28T06:00:26;21.02;;;8.90;;
67798;SDS011;54596;43.216;27.904;2022-09-28T06:03:05;18.20;;;8.95;;
67798;SDS011;54596;43.216;27.904;2022-09-28T06:05:34;17.58;;;7.63;;
67798;SDS011;54596;43.216;27.904;2022-09-28T06:08:00;17.10;;;7.00;;
67798;SDS011;54596;43.216;27.904;2022-09-28T06:10:28;20.58;;;6.55;;
67798;SDS011;54596;43.216;27.904;2022-09-28T06:12:54;20.15;;;6.72;;
67798;SDS011;54596;43.216;27.904;2022-09-28T06:15:24;16.85;;;6.90;;
67798;SDS011;54596;43.216;27.904;2022-09-28T06:17:58;14.88;;;7.07;;
67798;SDS011;54596;43.216;27.904;2022-09-28T06:20:25;19.33;;;7.28;;
67798;SDS011;54596;43.216;27.904;2022-09-28T06:22:52;20.58;;;7.78;;
67798;SDS011;54596;43.216;27.904;2022-09-28T06:25:18;18.70;;;6.53;;
67798;SDS011;54596;43.216;27.904;2022-09-28T06:28:01;15.77;;;5.85;;
67798;SDS011;54596;43.216;27.904;2022-09-28T06:30:34;13.35;;;5.40;;
67798;SDS011;54596;43.216;27.904;2022-09-28T06:33:02;18.23;;;5.57;;
67798;SDS011;54596;43.216;27.904;2022-09-28T06:35:28;17.95;;;6.35;;
67798;SDS011;54596;43.216;27.904;2022-09-28T06:37:55;26.40;;;6.97;;
67798;SDS011;54596;43.216;27.904;2022-09-28T06:40:21;19.48;;;6.50;;
67798;SDS011;54596;43.216;27.904;2022-09-28T06:42:57;21.90;;;6.93;;
67798;SDS011;54596;43.216;27.904;2022-09-28T06:45:23;22.50;;;6.63;;
67798;SDS011;54596;43.216;27.904;2022-09-28T06:47:54;26.20;;;6.97;;
67798;SDS011;54596;43.216;27.904;2022-09-28T06:50:22;20.02;;;7.00;;
67798;SDS011;54596;43.216;27.904;2022-09-28T06:52:59;14.63;;;5.90;;
67798;SDS011;54596;43.216;27.904;2022-09-28T06:55:25;15.02;;;6.10;;
67798;SDS011;54596;43.216;27.904;2022-09-28T06:57:57;18.95;;;6.20;;
67798;SDS011;54596;43.216;27.904;2022-09-28T07:00:28;15.00;;;5.25;;
67798;SDS011;54596;43.216;27.904;2022-09-28T07:02:57;12.02;;;4.95;;
67798;SDS011;54596;43.216;27.904;2022-09-28T07:05:24;14.00;;;4.70;;
67798;SDS011;54596;43.216;27.904;2022-09-28T07:07:53;16.60;;;4.93;;
67798;SDS011;54596;43.216;27.904;2022-09-28T07:10:26;18.25;;;6.85;;
67798;SDS011;54596;43.216;27.904;2022-09-28T07:12:53;17.30;;;6.93;;
67798;SDS011;54596;43.216;27.904;2022-09-28T07:15:19;14.02;;;9.05;;
67798;SDS011;54596;43.216;27.904;2022-09-28T07:17:45;18.70;;;9.48;;
67798;SDS011;54596;43.216;27.904;2022-09-28T07:20:11;22.45;;;9.18;;
67798;SDS011;54596;43.216;27.904;2022-09-28T07:22:37;18.92;;;7.47;;
67798;SDS011;54596;43.216;27.904;2022-09-28T07:25:03;14.90;;;7.65;;
67798;SDS011;54596;43.216;27.904;2022-09-28T07:27:30;16.02;;;9.60;;
67798;SDS011;54596;43.216;27.904;2022-09-28T07:29:55;22.35;;;10.20;;
67798;SDS011;54596;43.216;27.904;2022-09-28T07:32:23;18.95;;;10.52;;
67798;SDS011;54596;43.216;27.904;2022-09-28T07:34:49;18.20;;;9.48;;
67798;SDS011;54596;43.216;27.904;2022-09-28T07:37:15;20.25;;;7.40;;
67798;SDS011;54596;43.216;27.904;2022-09-28T07:39:43;19.48;;;8.90;;
67798;SDS011;54596;43.216;27.904;2022-09-28T07:42:27;20.50;;;6.78;;
67798;SDS011;54596;43.216;27.904;2022-09-28T07:44:54;19.10;;;6.00;;
67798;SDS011;54596;43.216;27.904;2022-09-28T07:47:23;20.08;;;6.00;;
67798;SDS011;54596;43.216;27.904;2022-09-28T07:49:53;20.15;;;7.55;;
67798;SDS011;54596;43.216;27.904;2022-09-28T07:52:22;12.85;;;5.88;;
67798;SDS011;54596;43.216;27.904;2022-09-28T07:54:52;16.40;;;6.50;;
67798;SDS011;54596;43.216;27.904;2022-09-28T07:57:19;14.00;;;5.72;;
67798;SDS011;54596;43.216;27.904;2022-09-28T07:59:46;13.73;;;6.63;;
67798;SDS011;54596;43.216;27.904;2022-09-28T08:02:12;16.20;;;6.28;;
67798;SDS011;54596;43.216;27.904;2022-09-28T08:04:38;13.48;;;4.32;;
67798;SDS011;54596;43.216;27.904;2022-09-28T08:07:10;14.88;;;5.47;;
67798;SDS011;54596;43.216;27.904;2022-09-28T08:09:36;12.52;;;5.80;;
67798;SDS011;54596;43.216;27.904;2022-09-28T08:12:02;11.45;;;4.30;;
67798;SDS011;54596;43.216;27.904;2022-09-28T08:14:29;13.50;;;5.55;;
67798;SDS011;54596;43.216;27.904;2022-09-28T08:17:01;12.75;;;5.15;;
67798;SDS011;54596;43.216;27.904;2022-09-28T08:19:28;12.50;;;5.47;;
67798;SDS011;54596;43.216;27.904;2022-09-28T08:22:17;12.30;;;6.22;;
67798;SDS011;54596;43.216;27.904;2022-09-28T08:24:47;13.32;;;5.38;;
67798;SDS011;54596;43.216;27.904;2022-09-28T08:27:14;12.20;;;5.68;;
67798;SDS011;54596;43.216;27.904;2022-09-28T08:29:41;12.20;;;5.65;;
67798;SDS011;54596;43.216;27.904;2022-09-28T08:32:07;13.38;;;6.68;;
67798;SDS011;54596;43.216;27.904;2022-09-28T08:34:38;9.18;;;4.47;;
67798;SDS011;54596;43.216;27.904;2022-09-28T08:37:05;10.98;;;3.42;;
67798;SDS011;54596;43.216;27.904;2022-09-28T08:39:33;9.77;;;4.10;;
67798;SDS011;54596;43.216;27.904;2022-09-28T08:42:03;11.18;;;5.20;;
67798;SDS011;54596;43.216;27.904;2022-09-28T08:44:31;11.35;;;4.63;;
67798;SDS011;54596;43.216;27.904;2022-09-28T08:47:23;10.18;;;5.90;;
67798;SDS011;54596;43.216;27.904;2022-09-28T08:50:16;13.02;;;5.85;;
67798;SDS011;54596;43.216;27.904;2022-09-28T08:52:50;9.32;;;4.90;;
67798;SDS011;54596;43.216;27.904;2022-09-28T08:55:33;11.45;;;5.68;;
67798;SDS011;54596;43.216;27.904;2022-09-28T09:02:58;12.88;;;5.40;;
67798;SDS011;54596;43.216;27.904;2022-09-28T09:05:42;10.10;;;4.40;;
67798;SDS011;54596;43.216;27.904;2022-09-28T09:16:33;12.25;;;5.72;;
67798;SDS011;54596;43.216;27.904;2022-09-28T09:19:16;12.38;;;4.90;;
67798;SDS011;54596;43.216;27.904;2022-09-28T09:22:35;17.58;;;7.18;;
67798;SDS011;54596;43.216;27.904;2022-09-28T09:25:39;9.70;;;4.40;;
67798;SDS011;54596;43.216;27.904;2022-09-28T09:30:18;8.95;;;3.65;;
67798;SDS011;54596;43.216;27.904;2022-09-28T09:56:54;9.32;;;3.10;;
67798;SDS011;54596;43.216;27.904;2022-09-28T09:59:25;9.38;;;3.25;;
67798;SDS011;54596;43.216;27.904;2022-09-28T10:01:59;8.65;;;3.67;;
67798;SDS011;54596;43.216;27.904;2022-09-28T10:04:34;9.98;;;3.50;;
67798;SDS011;54596;43.216;27.904;2022-09-28T10:07:05;8.68;;;3.20;;
67798;SDS011;54596;43.216;27.904;2022-09-28T10:09:35;7.97;;;3.00;;
67798;SDS011;54596;43.216;27.904;2022-09-28T10:12:03;6.97;;;2.60;;
67798;SDS011;54596;43.216;27.904;2022-09-28T10:14:36;12.25;;;2.78;;
67798;SDS011;54596;43.216;27.904;2022-09-28T10:17:02;10.65;;;3.45;;
67798;SDS011;54596;43.216;27.904;2022-09-28T10:19:32;8.73;;;2.95;;
67798;SDS011;54596;43.216;27.904;2022-09-28T10:22:02;9.10;;;3.10;;
67798;SDS011;54596;43.216;27.904;2022-09-28T10:24:31;10.55;;;3.92;;
67798;SDS011;54596;43.216;27.904;2022-09-28T10:27:06;9.45;;;3.50;;
67798;SDS011;54596;43.216;27.904;2022-09-28T10:29:51;11.65;;;2.95;;
67798;SDS011;54596;43.216;27.904;2022-09-28T10:32:24;7.63;;;2.50;;
67798;SDS011;54596;43.216;27.904;2022-09-28T10:46:04;10.52;;;2.60;;
67798;SDS011;54596;43.216;27.904;2022-09-28T10:49:14;7.10;;;2.20;;
67798;SDS011;54596;43.216;27.904;2022-09-28T10:54:04;8.95;;;3.20;;
67798;SDS011;54596;43.216;27.904;2022-09-28T10:56:34;10.07;;;2.97;;
67798;SDS011;54596;43.216;27.904;2022-09-28T10:59:01;8.30;;;2.65;;
67798;SDS011;54596;43.216;27.904;2022-09-28T11:01:52;10.50;;;2.88;;
67798;SDS011;54596;43.216;27.904;2022-09-28T11:04:20;7.82;;;3.20;;
67798;SDS011;54596;43.216;27.904;2022-09-28T11:06:50;6.50;;;2.35;;
67798;SDS011;54596;43.216;27.904;2022-09-28T11:09:26;11.88;;;2.85;;
67798;SDS011;54596;43.216;27.904;2022-09-28T11:11:54;8.43;;;2.80;;
67798;SDS011;54596;43.216;27.904;2022-09-28T11:14:39;7.53;;;2.60;;
67798;SDS011;54596;43.216;27.904;2022-09-28T11:17:29;8.85;;;3.08;;
67798;SDS011;54596;43.216;27.904;2022-09-28T11:22:49;9.52;;;3.28;;
67798;SDS011;54596;43.216;27.904;2022-09-28T11:28:02;10.60;;;3.10;;
67798;SDS011;54596;43.216;27.904;2022-09-28T11:35:55;10.98;;;3.30;;
67798;SDS011;54596;43.216;27.904;2022-09-28T11:38:47;10.47;;;4.30;;
67798;SDS011;54596;43.216;27.904;2022-09-28T11:51:43;10.95;;;2.95;;
67798;SDS011;54596;43.216;27.904;2022-09-28T11:57:20;10.40;;;2.70;;
67798;SDS011;54596;43.216;27.904;2022-09-28T12:00:03;10.57;;;3.13;;
67798;SDS011;54596;43.216;27.904;2022-09-28T12:02:41;10.65;;;2.90;;
67798;SDS011;54596;43.216;27.904;2022-09-28T12:05:24;12.70;;;3.13;;
67798;SDS011;54596;43.216;27.904;2022-09-28T12:10:44;9.25;;;2.80;;
67798;SDS011;54596;43.216;27.904;2022-09-28T12:13:17;6.15;;;2.40;;
67798;SDS011;54596;43.216;27.904;2022-09-28T12:18:27;9.25;;;3.42;;
67798;SDS011;54596;43.216;27.904;2022-09-28T12:23:37;11.82;;;2.92;;
67798;SDS011;54596;43.216;27.904;2022-09-28T12:26:10;10.82;;;3.80;;
67798;SDS011;54596;43.216;27.904;2022-09-28T12:29:09;13.23;;;4.22;;
67798;SDS011;54596;43.216;27.904;2022-09-28T12:32:13;13.15;;;3.55;;
67798;SDS011;54596;43.216;27.904;2022-09-28T12:34:50;11.93;;;3.55;;
67798;SDS011;54596;43.216;27.904;2022-09-28T12:37:26;13.68;;;3.78;;
67798;SDS011;54596;43.216;27.904;2022-09-28T12:40:50;9.88;;;3.47;;
67798;SDS011;54596;43.216;27.904;2022-09-28T12:43:37;10.57;;;2.80;;
67798;SDS011;54596;43.216;27.904;2022-09-28T12:46:09;8.13;;;2.53;;
67798;SDS011;54596;43.216;27.904;2022-09-28T12:54:30;9.07;;;3.22;;
67798;SDS011;54596;43.216;27.904;2022-09-28T13:05:35;17.08;;;7.38;;
67798;SDS011;54596;43.216;27.904;2022-09-28T13:19:13;22.33;;;13.55;;
67798;SDS011;54596;43.216;27.904;2022-09-28T13:21:54;11.60;;;4.25;;
67798;SDS011;54596;43.216;27.904;2022-09-28T13:24:31;10.38;;;4.18;;
67798;SDS011;54596;43.216;27.904;2022-09-28T13:27:09;11.98;;;4.63;;
67798;SDS011;54596;43.216;27.904;2022-09-28T13:29:41;10.43;;;4.07;;
67798;SDS011;54596;43.216;27.904;2022-09-28T13:32:08;10.18;;;4.00;;
67798;SDS011;54596;43.216;27.904;2022-09-28T13:34:36;10.23;;;4.90;;
67798;SDS011;54596;43.216;27.904;2022-09-28T13:37:22;11.63;;;4.80;;
67798;SDS011;54596;43.216;27.904;2022-09-28T13:39:56;11.20;;;5.00;;
67798;SDS011;54596;43.216;27.904;2022-09-28T13:47:54;11.25;;;5.40;;
67798;SDS011;54596;43.216;27.904;2022-09-28T13:55:22;9.30;;;4.95;;
67798;SDS011;54596;43.216;27.904;2022-09-28T13:57:54;11.68;;;5.60;;
67798;SDS011;54596;43.216;27.904;2022-09-28T14:00:26;15.63;;;5.60;;
67798;SDS011;54596;43.216;27.904;2022-09-28T14:03:22;10.77;;;5.00;;
67798;SDS011;54596;43.216;27.904;2022-09-28T14:11:22;13.63;;;6.45;;
67798;SDS011;54596;43.216;27.904;2022-09-28T14:13:59;13.48;;;5.82;;
67798;SDS011;54596;43.216;27.904;2022-09-28T14:16:30;12.55;;;6.25;;
67798;SDS011;54596;43.216;27.904;2022-09-28T14:27:03;10.75;;;4.90;;
67798;SDS011;54596;43.216;27.904;2022-09-28T14:32:35;10.57;;;5.00;;
67798;SDS011;54596;43.216;27.904;2022-09-28T14:35:26;10.02;;;5.10;;
67798;SDS011;54596;43.216;27.904;2022-09-28T14:37:52;11.15;;;5.80;;
67798;SDS011;54596;43.216;27.904;2022-09-28T14:43:36;11.48;;;6.22;;
67798;SDS011;54596;43.216;27.904;2022-09-28T14:46:25;10.07;;;5.38;;
67798;SDS011;54596;43.216;27.904;2022-09-28T14:49:03;12.35;;;5.90;;
67798;SDS011;54596;43.216;27.904;2022-09-28T14:54:18;13.43;;;5.70;;
67798;SDS011;54596;43.216;27.904;2022-09-28T14:56:48;13.13;;;5.30;;
67798;SDS011;54596;43.216;27.904;2022-09-28T14:59:37;9.93;;;4.75;;
67798;SDS011;54596;43.216;27.904;2022-09-28T15:07:27;13.00;;;5.55;;
67798;SDS011;54596;43.216;27.904;2022-09-28T15:09:57;13.18;;;5.60;;
67798;SDS011;54596;43.216;27.904;2022-09-28T15:12:25;12.30;;;5.40;;
67798;SDS011;54596;43.216;27.904;2022-09-28T15:15:03;14.85;;;5.90;;
67798;SDS011;54596;43.216;27.904;2022-09-28T15:17:36;15.05;;;6.20;;
67798;SDS011;54596;43.216;27.904;2022-09-28T15:20:07;13.63;;;6.63;;
67798;SDS011;54596;43.216;27.904;2022-09-28T15:22:35;29.55;;;16.30;;
67798;SDS011;54596;43.216;27.904;2022-09-28T15:25:02;14.55;;;5.97;;
67798;SDS011;54596;43.216;27.904;2022-09-28T15:27:37;14.77;;;6.75;;
67798;SDS011;54596;43.216;27.904;2022-09-28T15:32:52;15.48;;;6.43;;
67798;SDS011;54596;43.216;27.904;2022-09-28T15:35:24;15.88;;;6.95;;
67798;SDS011;54596;43.216;27.904;2022-09-28T15:37:52;15.00;;;6.18;;
67798;SDS011;54596;43.216;27.904;2022-09-28T15:42:53;34.72;;;15.40;;
67798;SDS011;54596;43.216;27.904;2022-09-28T15:45:21;19.50;;;9.07;;
67798;SDS011;54596;43.216;27.904;2022-09-28T15:47:51;19.02;;;7.47;;
67798;SDS011;54596;43.216;27.904;2022-09-28T15:50:23;15.13;;;6.63;;
67798;SDS011;54596;43.216;27.904;2022-09-28T15:55:19;19.20;;;7.88;;
67798;SDS011;54596;43.216;27.904;2022-09-28T15:57:48;20.50;;;9.20;;
67798;SDS011;54596;43.216;27.904;2022-09-28T16:00:22;19.60;;;8.57;;
67798;SDS011;54596;43.216;27.904;2022-09-28T16:03:10;19.98;;;7.28;;
67798;SDS011;54596;43.216;27.904;2022-09-28T16:08:20;16.27;;;6.90;;
67798;SDS011;54596;43.216;27.904;2022-09-28T16:10:55;17.13;;;7.13;;
67798;SDS011;54596;43.216;27.904;2022-09-28T16:13:28;18.17;;;6.90;;
67798;SDS011;54596;43.216;27.904;2022-09-28T16:15:57;20.80;;;8.13;;
67798;SDS011;54596;43.216;27.904;2022-09-28T16:18:27;20.20;;;9.05;;
67798;SDS011;54596;43.216;27.904;2022-09-28T16:20:55;19.05;;;8.50;;
67798;SDS011;54596;43.216;27.904;2022-09-28T16:23:33;65.72;;;35.45;;
67798;SDS011;54596;43.216;27.904;2022-09-28T16:26:08;25.52;;;11.70;;
67798;SDS011;54596;43.216;27.904;2022-09-28T16:33:39;18.88;;;7.88;;
67798;SDS011;54596;43.216;27.904;2022-09-28T16:36:11;21.58;;;8.65;;
67798;SDS011;54596;43.216;27.904;2022-09-28T16:38:42;20.38;;;9.73;;
67798;SDS011;54596;43.216;27.904;2022-09-28T16:41:11;17.27;;;8.38;;
67798;SDS011;54596;43.216;27.904;2022-09-28T16:43:38;20.10;;;9.20;;
67798;SDS011;54596;43.216;27.904;2022-09-28T16:46:07;22.77;;;8.93;;
67798;SDS011;54596;43.216;27.904;2022-09-28T16:48:40;24.48;;;9.55;;
67798;SDS011;54596;43.216;27.904;2022-09-28T16:51:13;18.35;;;9.05;;
67798;SDS011;54596;43.216;27.904;2022-09-28T16:53:42;25.27;;;11.15;;
67798;SDS011;54596;43.216;27.904;2022-09-28T16:56:26;22.95;;;9.90;;
67798;SDS011;54596;43.216;27.904;2022-09-28T16:58:54;24.80;;;10.70;;
67798;SDS011;54596;43.216;27.904;2022-09-28T17:01:20;26.48;;;12.32;;
67798;SDS011;54596;43.216;27.904;2022-09-28T17:03:47;21.52;;;8.95;;
67798;SDS011;54596;43.216;27.904;2022-09-28T17:06:14;18.23;;;9.70;;
67798;SDS011;54596;43.216;27.904;2022-09-28T17:08:45;25.92;;;9.98;;
67798;SDS011;54596;43.216;27.904;2022-09-28T17:11:14;27.58;;;11.07;;
67798;SDS011;54596;43.216;27.904;2022-09-28T17:13:42;20.13;;;10.90;;
67798;SDS011;54596;43.216;27.904;2022-09-28T17:16:10;21.25;;;8.35;;
67798;SDS011;54596;43.216;27.904;2022-09-28T17:18:38;23.77;;;10.68;;
67798;SDS011;54596;43.216;27.904;2022-09-28T17:21:08;24.00;;;8.88;;
67798;SDS011;54596;43.216;27.904;2022-09-28T17:23:36;20.88;;;9.40;;
67798;SDS011;54596;43.216;27.904;2022-09-28T17:26:02;20.15;;;9.25;;
67798;SDS011;54596;43.216;27.904;2022-09-28T17:28:32;22.90;;;9.90;;
67798;SDS011;54596;43.216;27.904;2022-09-28T17:31:00;20.40;;;9.45;;
67798;SDS011;54596;43.216;27.904;2022-09-28T17:33:26;23.38;;;9.38;;
67798;SDS011;54596;43.216;27.904;2022-09-28T17:35:56;22.25;;;9.90;;
67798;SDS011;54596;43.216;27.904;2022-09-28T17:38:24;19.77;;;7.93;;
67798;SDS011;54596;43.216;27.904;2022-09-28T17:40:50;20.30;;;9.30;;
67798;SDS011;54596;43.216;27.904;2022-09-28T17:43:15;24.15;;;9.27;;
67798;SDS011;54596;43.216;27.904;2022-09-28T17:45:41;22.33;;;9.50;;
67798;SDS011;54596;43.216;27.904;2022-09-28T17:48:14;20.15;;;8.70;;
67798;SDS011;54596;43.216;27.904;2022-09-28T17:50:44;20.85;;;8.48;;
67798;SDS011;54596;43.216;27.904;2022-09-28T17:53:11;18.85;;;8.40;;
67798;SDS011;54596;43.216;27.904;2022-09-28T17:55:38;17.13;;;7.63;;
67798;SDS011;54596;43.216;27.904;2022-09-28T17:58:19;20.70;;;7.78;;
67798;SDS011;54596;43.216;27.904;2022-09-28T18:00:47;18.40;;;7.93;;
67798;SDS011;54596;43.216;27.904;2022-09-28T18:03:18;19.08;;;9.00;;
67798;SDS011;54596;43.216;27.904;2022-09-28T18:05:46;22.33;;;9.45;;
67798;SDS011;54596;43.216;27.904;2022-09-28T18:08:17;21.88;;;9.45;;